KAPG/APG METAR and TAF weather

Enter ICAO airport designator
Station Type Date Time Source
KAPG METAR 2019/12/05 21:47 UTC NOAA

KAPG 052147Z VRB06KT 9SM SCT050 06/M06 A3003 RMK SLP173


Station Type Date Time Source
KAPG Decoded METAR 2019/12/05 21:47 UTC NOAA

Phillips Army Air Field / Aberdeen, MD, United States (KAPG) 39-28N 076-10W
Dec 05, 2019 - 04:47 PM EST / 2019.12.05 2147 UTC
Wind: Variable at 7 MPH (6 KT):0
Visibility: 9 mile(s):0
Sky conditions: partly cloudy
Temperature: 42 F (6 C)
Dew Point: 21 F (-6 C)
Relative Humidity: 41%
Pressure (altimeter): 30.03 in. Hg (1016 hPa)
ob: KAPG 052147Z VRB06KT 9SM SCT050 06/M06 A3003 RMK SLP173
cycle: 22

Station Type Date Time Source
KAPG TAF UTC NOAA

Error!

Example: see airport list